Nagpur, India

12:56 AM IST on July 25, 2016 (GMT +0530)
Nagpur | | Change Station

Elev 1017 ft 21.09 °N, 79.06 °E | Updated 26 minutes ago

Haze
Haze
81 °F
Feels Like 87 °F
N
2
Wind Variable Wind from South

Today
High -- | Low -- °F
--% Chance of Precip.
Yesterday
High -- | Low -- °F
Precip. -- in
Pressure 29.68 in
Visibility 1.9 miles
Clouds Scattered Clouds 1500 ft
Mostly Cloudy 9000 ft
Heat Index 87 °F
Dew Point 77 °F
Humidity 89%
Rainfall 0.00 in
Snow Depth Not available.
5:44 AM 6:55 PM
Waning Gibbous, 74% visible
METAR VANP 241900Z 18002KT 3000 HZ SCT015 BKN090 27/25 Q1005 NOSIG
Pressure 29.68 in
Visibility 1.9 miles
Clouds Scattered Clouds 1500 ft
Mostly Cloudy 9000 ft
Heat Index 87 °F
Dew Point 77 °F
Humidity 89%
Rainfall 0.00 in
Snow Depth Not available.
5:44 AM 6:55 PM
Waning Gibbous, 74% visible
METAR VANP 241900Z 18002KT 3000 HZ SCT015 BKN090 27/25 Q1005 NOSIG

10-Day Weather Forecast

No radar image for this location.
×

Almanac

Astronomy

Jul. 25, 2016 Rise Set
Actual Time
Civil Twilight
Nautical Twilight
Astronomical Twilight
Moon
Length of Visible Light
Length of Day
Tomorrow will be .
, % of the Moon is Illuminated

Today's Extremes

Country Highs Country Lows

Community

WunderPhotos

Upload Photos

1,927,172 photos uploaded!

WunderBlog® & News

Nearby

Air Quality

  Air Quality AQ Index Pollutant
Not available.

Snow Depth

Station Depth Elevation

Earthquake Activity

City Distance Mag. Time & Date
Minimum magnitude displayed is 2.5.

Coastal Water Temperatures

Place Temperature

Stations

Nearby Weather Stations

Station Location Temp. Windchill Dew Point Humidity Wind Precip. Elev Updated Type